sensor_id;sensor_type;location;lat;lon;timestamp;temperature;humidity
6174;DHT22;3120;48.796;9.796;2023-03-16T00:02:17;-0.20;99.90
6174;DHT22;3120;48.796;9.796;2023-03-16T00:04:43;-0.20;99.90
6174;DHT22;3120;48.796;9.796;2023-03-16T00:07:12;-0.20;99.90
6174;DHT22;3120;48.796;9.796;2023-03-16T00:09:38;-0.30;99.90
6174;DHT22;3120;48.796;9.796;2023-03-16T00:12:15;-0.20;99.90
6174;DHT22;3120;48.796;9.796;2023-03-16T00:14:46;-0.20;99.90
6174;DHT22;3120;48.796;9.796;2023-03-16T00:17:14;-0.30;99.90
6174;DHT22;3120;48.796;9.796;2023-03-16T00:19:52;-0.20;99.90
6174;DHT22;3120;48.796;9.796;2023-03-16T00:22:23;-0.20;99.90
6174;DHT22;3120;48.796;9.796;2023-03-16T00:24:49;-0.20;99.90
6174;DHT22;3120;48.796;9.796;2023-03-16T00:27:15;-0.30;99.90
6174;DHT22;3120;48.796;9.796;2023-03-16T00:29:46;-0.30;99.90
6174;DHT22;3120;48.796;9.796;2023-03-16T00:32:24;-0.20;99.90
6174;DHT22;3120;48.796;9.796;2023-03-16T00:34:50;-0.30;99.90
6174;DHT22;3120;48.796;9.796;2023-03-16T00:37:18;-0.30;99.90
6174;DHT22;3120;48.796;9.796;2023-03-16T00:39:45;-0.40;99.90
6174;DHT22;3120;48.796;9.796;2023-03-16T00:42:12;-0.40;99.90
6174;DHT22;3120;48.796;9.796;2023-03-16T00:44:39;-0.30;99.90
6174;DHT22;3120;48.796;9.796;2023-03-16T00:47:35;-0.30;99.90
6174;DHT22;3120;48.796;9.796;2023-03-16T00:50:01;-0.40;99.90
6174;DHT22;3120;48.796;9.796;2023-03-16T00:52:28;-0.40;99.90
6174;DHT22;3120;48.796;9.796;2023-03-16T00:54:54;-0.40;99.90
6174;DHT22;3120;48.796;9.796;2023-03-16T00:57:22;-0.40;99.90
6174;DHT22;3120;48.796;9.796;2023-03-16T00:59:49;-0.40;99.90
6174;DHT22;3120;48.796;9.796;2023-03-16T01:02:16;-0.50;99.90
6174;DHT22;3120;48.796;9.796;2023-03-16T01:04:43;-0.40;99.90
6174;DHT22;3120;48.796;9.796;2023-03-16T01:07:12;-0.50;99.90
6174;DHT22;3120;48.796;9.796;2023-03-16T01:09:41;-0.40;99.90
6174;DHT22;3120;48.796;9.796;2023-03-16T01:12:13;-0.60;99.90
6174;DHT22;3120;48.796;9.796;2023-03-16T01:14:41;-0.70;99.90
6174;DHT22;3120;48.796;9.796;2023-03-16T01:17:08;-0.70;99.90
6174;DHT22;3120;48.796;9.796;2023-03-16T01:19:35;-0.60;99.90
6174;DHT22;3120;48.796;9.796;2023-03-16T01:22:02;-0.50;99.90
6174;DHT22;3120;48.796;9.796;2023-03-16T01:24:28;-0.50;99.90
6174;DHT22;3120;48.796;9.796;2023-03-16T01:26:54;-0.60;99.90
6174;DHT22;3120;48.796;9.796;2023-03-16T01:29:19;-0.60;99.90
6174;DHT22;3120;48.796;9.796;2023-03-16T01:31:45;-0.60;99.90
6174;DHT22;3120;48.796;9.796;2023-03-16T01:34:11;-0.70;99.90
6174;DHT22;3120;48.796;9.796;2023-03-16T01:36:43;-0.70;99.90
6174;DHT22;3120;48.796;9.796;2023-03-16T01:39:11;-0.70;99.90
6174;DHT22;3120;48.796;9.796;2023-03-16T01:41:38;-0.80;99.90
6174;DHT22;3120;48.796;9.796;2023-03-16T01:44:04;-0.80;99.90
6174;DHT22;3120;48.796;9.796;2023-03-16T01:46:30;-0.80;99.90
6174;DHT22;3120;48.796;9.796;2023-03-16T01:49:01;-0.80;99.90
6174;DHT22;3120;48.796;9.796;2023-03-16T01:51:28;-0.80;99.90
6174;DHT22;3120;48.796;9.796;2023-03-16T01:56:34;-0.70;99.90
6174;DHT22;3120;48.796;9.796;2023-03-16T01:59:06;-0.70;99.90
6174;DHT22;3120;48.796;9.796;2023-03-16T02:01:34;-0.80;99.90
6174;DHT22;3120;48.796;9.796;2023-03-16T02:06:48;-0.70;99.90
6174;DHT22;3120;48.796;9.796;2023-03-16T02:09:15;-0.70;99.90
6174;DHT22;3120;48.796;9.796;2023-03-16T02:11:41;-0.70;99.90
6174;DHT22;3120;48.796;9.796;2023-03-16T02:14:09;-0.70;99.90
6174;DHT22;3120;48.796;9.796;2023-03-16T02:16:35;-0.70;99.90
6174;DHT22;3120;48.796;9.796;2023-03-16T02:19:01;-0.70;99.90
6174;DHT22;3120;48.796;9.796;2023-03-16T02:21:54;0.40;99.90
6174;DHT22;3120;48.796;9.796;2023-03-16T02:24:22;-0.70;99.90
6174;DHT22;3120;48.796;9.796;2023-03-16T02:26:54;-0.80;99.90
6174;DHT22;3120;48.796;9.796;2023-03-16T02:29:56;-0.80;99.90
6174;DHT22;3120;48.796;9.796;2023-03-16T02:32:25;-0.80;99.90
6174;DHT22;3120;48.796;9.796;2023-03-16T02:34:52;-0.90;99.90
6174;DHT22;3120;48.796;9.796;2023-03-16T02:37:19;-1.00;99.90
6174;DHT22;3120;48.796;9.796;2023-03-16T02:39:46;-0.90;99.90
6174;DHT22;3120;48.796;9.796;2023-03-16T02:42:14;-0.90;99.90
6174;DHT22;3120;48.796;9.796;2023-03-16T02:44:41;-0.90;99.90
6174;DHT22;3120;48.796;9.796;2023-03-16T02:47:14;-0.90;99.90
6174;DHT22;3120;48.796;9.796;2023-03-16T02:49:43;-0.90;99.90
6174;DHT22;3120;48.796;9.796;2023-03-16T02:52:10;-0.90;99.90
6174;DHT22;3120;48.796;9.796;2023-03-16T02:54:36;-0.90;99.90
6174;DHT22;3120;48.796;9.796;2023-03-16T02:57:02;-0.90;99.90
6174;DHT22;3120;48.796;9.796;2023-03-16T02:59:27;-1.00;99.90
6174;DHT22;3120;48.796;9.796;2023-03-16T03:01:53;-1.00;99.90
6174;DHT22;3120;48.796;9.796;2023-03-16T03:04:19;-0.90;99.90
6174;DHT22;3120;48.796;9.796;2023-03-16T03:06:48;-1.00;99.90
6174;DHT22;3120;48.796;9.796;2023-03-16T03:09:13;-1.00;99.90
6174;DHT22;3120;48.796;9.796;2023-03-16T03:11:39;-1.00;99.90
6174;DHT22;3120;48.796;9.796;2023-03-16T03:14:05;-1.00;99.90
6174;DHT22;3120;48.796;9.796;2023-03-16T03:16:31;-1.00;99.90
6174;DHT22;3120;48.796;9.796;2023-03-16T03:18:57;-1.00;99.90
6174;DHT22;3120;48.796;9.796;2023-03-16T03:21:23;-1.00;99.90
6174;DHT22;3120;48.796;9.796;2023-03-16T03:23:49;-1.00;99.90
6174;DHT22;3120;48.796;9.796;2023-03-16T03:26:15;-1.00;99.90
6174;DHT22;3120;48.796;9.796;2023-03-16T03:28:41;-1.00;99.90
6174;DHT22;3120;48.796;9.796;2023-03-16T03:31:13;-0.20;99.90
6174;DHT22;3120;48.796;9.796;2023-03-16T03:33:39;-1.10;99.90
6174;DHT22;3120;48.796;9.796;2023-03-16T03:36:05;-1.00;99.90
6174;DHT22;3120;48.796;9.796;2023-03-16T03:38:31;-1.00;99.90
6174;DHT22;3120;48.796;9.796;2023-03-16T03:40:56;-1.00;99.90
6174;DHT22;3120;48.796;9.796;2023-03-16T03:43:25;-1.00;99.90
6174;DHT22;3120;48.796;9.796;2023-03-16T03:45:58;-0.90;99.90
6174;DHT22;3120;48.796;9.796;2023-03-16T03:48:24;-1.00;99.90
6174;DHT22;3120;48.796;9.796;2023-03-16T03:50:50;-1.00;99.90
6174;DHT22;3120;48.796;9.796;2023-03-16T03:53:16;-1.00;99.90
6174;DHT22;3120;48.796;9.796;2023-03-16T03:55:41;-1.10;99.90
6174;DHT22;3120;48.796;9.796;2023-03-16T03:58:07;-1.10;99.90
6174;DHT22;3120;48.796;9.796;2023-03-16T04:00:33;-1.00;99.90
6174;DHT22;3120;48.796;9.796;2023-03-16T04:02:59;-1.00;99.90
6174;DHT22;3120;48.796;9.796;2023-03-16T04:05:25;-1.00;99.90
6174;DHT22;3120;48.796;9.796;2023-03-16T04:07:53;-1.00;99.90
6174;DHT22;3120;48.796;9.796;2023-03-16T04:10:26;-1.00;99.90
6174;DHT22;3120;48.796;9.796;2023-03-16T04:12:52;-1.00;99.90
6174;DHT22;3120;48.796;9.796;2023-03-16T04:15:18;-1.10;99.90
6174;DHT22;3120;48.796;9.796;2023-03-16T04:17:44;-1.00;99.90
6174;DHT22;3120;48.796;9.796;2023-03-16T04:20:10;-1.00;99.90
6174;DHT22;3120;48.796;9.796;2023-03-16T04:22:40;-1.10;99.90
6174;DHT22;3120;48.796;9.796;2023-03-16T04:25:08;-1.00;99.90
6174;DHT22;3120;48.796;9.796;2023-03-16T04:27:33;-1.10;99.90
6174;DHT22;3120;48.796;9.796;2023-03-16T04:30:04;-1.20;99.90
6174;DHT22;3120;48.796;9.796;2023-03-16T04:32:33;-1.20;99.90
6174;DHT22;3120;48.796;9.796;2023-03-16T04:34:59;-1.10;99.90
6174;DHT22;3120;48.796;9.796;2023-03-16T04:37:26;-1.10;99.90
6174;DHT22;3120;48.796;9.796;2023-03-16T04:39:51;-1.00;99.90
6174;DHT22;3120;48.796;9.796;2023-03-16T04:42:17;-1.00;99.90
6174;DHT22;3120;48.796;9.796;2023-03-16T04:44:42;-0.90;99.90
6174;DHT22;3120;48.796;9.796;2023-03-16T04:47:10;-1.00;99.90
6174;DHT22;3120;48.796;9.796;2023-03-16T04:49:39;-1.00;99.90
6174;DHT22;3120;48.796;9.796;2023-03-16T04:52:06;-0.90;99.90
6174;DHT22;3120;48.796;9.796;2023-03-16T04:54:32;-1.00;99.90
6174;DHT22;3120;48.796;9.796;2023-03-16T04:56:58;-1.00;99.90
6174;DHT22;3120;48.796;9.796;2023-03-16T04:59:25;-1.00;99.90
6174;DHT22;3120;48.796;9.796;2023-03-16T05:01:51;-1.00;99.90
6174;DHT22;3120;48.796;9.796;2023-03-16T05:04:18;-1.00;99.90
6174;DHT22;3120;48.796;9.796;2023-03-16T05:06:44;-1.00;99.90
6174;DHT22;3120;48.796;9.796;2023-03-16T05:09:10;-1.00;99.90
6174;DHT22;3120;48.796;9.796;2023-03-16T05:11:36;-1.00;99.90
6174;DHT22;3120;48.796;9.796;2023-03-16T05:14:02;0.10;99.90
6174;DHT22;3120;48.796;9.796;2023-03-16T05:16:29;-0.90;99.90
6174;DHT22;3120;48.796;9.796;2023-03-16T05:18:57;-0.90;99.90
6174;DHT22;3120;48.796;9.796;2023-03-16T05:21:23;-0.90;99.90
6174;DHT22;3120;48.796;9.796;2023-03-16T05:23:49;-0.80;99.90
6174;DHT22;3120;48.796;9.796;2023-03-16T05:26:16;-0.80;99.90
6174;DHT22;3120;48.796;9.796;2023-03-16T05:28:43;-0.80;99.90
6174;DHT22;3120;48.796;9.796;2023-03-16T05:31:08;-0.80;99.90
6174;DHT22;3120;48.796;9.796;2023-03-16T05:33:34;-0.80;99.90
6174;DHT22;3120;48.796;9.796;2023-03-16T05:35:59;-0.80;99.90
6174;DHT22;3120;48.796;9.796;2023-03-16T05:38:26;-0.70;99.90
6174;DHT22;3120;48.796;9.796;2023-03-16T05:40:51;-0.70;99.90
6174;DHT22;3120;48.796;9.796;2023-03-16T05:43:20;-0.60;99.90
6174;DHT22;3120;48.796;9.796;2023-03-16T05:45:49;-0.60;99.90
6174;DHT22;3120;48.796;9.796;2023-03-16T05:48:15;-0.70;99.90
6174;DHT22;3120;48.796;9.796;2023-03-16T05:50:41;0.90;99.90
6174;DHT22;3120;48.796;9.796;2023-03-16T05:53:07;-0.60;99.90
6174;DHT22;3120;48.796;9.796;2023-03-16T05:58:03;-0.50;99.90
6174;DHT22;3120;48.796;9.796;2023-03-16T06:00:28;-0.50;99.90
6174;DHT22;3120;48.796;9.796;2023-03-16T06:02:54;-0.50;99.90
6174;DHT22;3120;48.796;9.796;2023-03-16T06:05:20;-0.40;99.90
6174;DHT22;3120;48.796;9.796;2023-03-16T06:07:47;-0.40;99.90
6174;DHT22;3120;48.796;9.796;2023-03-16T06:10:13;-0.30;99.90
6174;DHT22;3120;48.796;9.796;2023-03-16T06:12:39;-0.20;99.90
6174;DHT22;3120;48.796;9.796;2023-03-16T06:15:06;-0.20;99.90
6174;DHT22;3120;48.796;9.796;2023-03-16T06:17:36;-0.10;99.90
6174;DHT22;3120;48.796;9.796;2023-03-16T06:20:03;-0.10;99.90
6174;DHT22;3120;48.796;9.796;2023-03-16T06:22:35;0.00;99.90
6174;DHT22;3120;48.796;9.796;2023-03-16T06:25:00;0.10;99.90
6174;DHT22;3120;48.796;9.796;2023-03-16T06:27:26;0.20;99.90
6174;DHT22;3120;48.796;9.796;2023-03-16T06:29:52;0.30;99.90
6174;DHT22;3120;48.796;9.796;2023-03-16T06:32:19;0.50;99.90
6174;DHT22;3120;48.796;9.796;2023-03-16T06:34:44;0.70;99.90
6174;DHT22;3120;48.796;9.796;2023-03-16T06:37:10;0.70;99.90
6174;DHT22;3120;48.796;9.796;2023-03-16T06:39:35;0.70;99.90
6174;DHT22;3120;48.796;9.796;2023-03-16T06:42:01;1.10;99.90
6174;DHT22;3120;48.796;9.796;2023-03-16T06:44:28;1.30;99.90
6174;DHT22;3120;48.796;9.796;2023-03-16T06:46:54;1.20;99.90
6174;DHT22;3120;48.796;9.796;2023-03-16T06:49:20;1.20;99.90
6174;DHT22;3120;48.796;9.796;2023-03-16T06:51:46;1.20;99.90
6174;DHT22;3120;48.796;9.796;2023-03-16T06:54:11;1.50;99.90
6174;DHT22;3120;48.796;9.796;2023-03-16T06:56:37;1.50;99.90
6174;DHT22;3120;48.796;9.796;2023-03-16T06:59:03;1.60;99.90
6174;DHT22;3120;48.796;9.796;2023-03-16T07:01:28;1.90;99.90
6174;DHT22;3120;48.796;9.796;2023-03-16T07:03:54;1.90;99.90
6174;DHT22;3120;48.796;9.796;2023-03-16T07:06:20;2.00;99.90
6174;DHT22;3120;48.796;9.796;2023-03-16T07:08:46;2.40;99.90
6174;DHT22;3120;48.796;9.796;2023-03-16T07:11:11;2.60;99.90
6174;DHT22;3120;48.796;9.796;2023-03-16T07:13:37;3.00;99.90
6174;DHT22;3120;48.796;9.796;2023-03-16T07:16:03;3.20;99.90
6174;DHT22;3120;48.796;9.796;2023-03-16T07:18:29;3.40;83.50
6174;DHT22;3120;48.796;9.796;2023-03-16T07:20:56;3.80;31.70
6174;DHT22;3120;48.796;9.796;2023-03-16T07:23:22;4.50;1.00
6174;DHT22;3120;48.796;9.796;2023-03-16T07:25:49;5.30;1.00
6174;DHT22;3120;48.796;9.796;2023-03-16T07:28:19;6.10;99.90
6174;DHT22;3120;48.796;9.796;2023-03-16T07:30:45;6.60;1.00
6174;DHT22;3120;48.796;9.796;2023-03-16T07:33:11;7.20;1.00
6174;DHT22;3120;48.796;9.796;2023-03-16T07:35:37;8.70;99.90
6174;DHT22;3120;48.796;9.796;2023-03-16T07:38:03;7.50;99.90
6174;DHT22;3120;48.796;9.796;2023-03-16T07:43:27;8.30;99.90
6174;DHT22;3120;48.796;9.796;2023-03-16T07:45:53;7.90;1.00
6174;DHT22;3120;48.796;9.796;2023-03-16T07:51:48;7.80;99.90
6174;DHT22;3120;48.796;9.796;2023-03-16T07:54:14;7.80;1.00
6174;DHT22;3120;48.796;9.796;2023-03-16T07:56:40;8.40;99.90
6174;DHT22;3120;48.796;9.796;2023-03-16T07:59:06;8.40;99.90
6174;DHT22;3120;48.796;9.796;2023-03-16T08:01:31;9.10;99.90
6174;DHT22;3120;48.796;9.796;2023-03-16T08:03:59;7.80;99.90
6174;DHT22;3120;48.796;9.796;2023-03-16T08:06:29;8.20;99.90
6174;DHT22;3120;48.796;9.796;2023-03-16T08:08:55;8.20;1.00
6174;DHT22;3120;48.796;9.796;2023-03-16T08:11:20;8.00;99.90
6174;DHT22;3120;48.796;9.796;2023-03-16T08:13:50;8.80;99.90
6174;DHT22;3120;48.796;9.796;2023-03-16T08:16:20;8.60;51.10
6174;DHT22;3120;48.796;9.796;2023-03-16T08:18:46;8.90;99.90
6174;DHT22;3120;48.796;9.796;2023-03-16T08:21:12;8.60;28.70
6174;DHT22;3120;48.796;9.796;2023-03-16T08:23:38;8.50;99.90
6174;DHT22;3120;48.796;9.796;2023-03-16T08:26:04;8.60;99.90
6174;DHT22;3120;48.796;9.796;2023-03-16T08:28:34;8.80;13.60
6174;DHT22;3120;48.796;9.796;2023-03-16T08:31:00;9.70;1.00
6174;DHT22;3120;48.796;9.796;2023-03-16T08:33:26;8.80;1.00
6174;DHT22;3120;48.796;9.796;2023-03-16T08:35:52;8.80;32.30
6174;DHT22;3120;48.796;9.796;2023-03-16T08:38:18;9.60;99.90
6174;DHT22;3120;48.796;9.796;2023-03-16T08:40:44;8.40;99.90
6174;DHT22;3120;48.796;9.796;2023-03-16T08:43:16;8.30;99.90
6174;DHT22;3120;48.796;9.796;2023-03-16T08:45:47;8.30;99.90
6174;DHT22;3120;48.796;9.796;2023-03-16T08:48:13;7.90;1.00
6174;DHT22;3120;48.796;9.796;2023-03-16T08:53:31;8.30;99.90
6174;DHT22;3120;48.796;9.796;2023-03-16T08:56:01;8.50;99.90
6174;DHT22;3120;48.796;9.796;2023-03-16T08:58:27;8.60;99.90
6174;DHT22;3120;48.796;9.796;2023-03-16T09:00:54;8.50;99.90
6174;DHT22;3120;48.796;9.796;2023-03-16T09:03:20;8.80;52.10
6174;DHT22;3120;48.796;9.796;2023-03-16T09:05:45;8.90;1.00
6174;DHT22;3120;48.796;9.796;2023-03-16T09:08:12;8.90;1.00
6174;DHT22;3120;48.796;9.796;2023-03-16T09:10:38;8.90;1.00
6174;DHT22;3120;48.796;9.796;2023-03-16T09:13:03;8.90;93.90
6174;DHT22;3120;48.796;9.796;2023-03-16T09:15:29;8.80;1.00
6174;DHT22;3120;48.796;9.796;2023-03-16T09:21:18;9.20;1.00
6174;DHT22;3120;48.796;9.796;2023-03-16T09:23:44;9.30;1.00
6174;DHT22;3120;48.796;9.796;2023-03-16T09:26:10;9.50;1.00
6174;DHT22;3120;48.796;9.796;2023-03-16T09:28:37;10.10;1.00
6174;DHT22;3120;48.796;9.796;2023-03-16T09:31:04;9.50;1.00
6174;DHT22;3120;48.796;9.796;2023-03-16T09:33:30;9.70;1.00
6174;DHT22;3120;48.796;9.796;2023-03-16T09:35:59;10.80;99.90
6174;DHT22;3120;48.796;9.796;2023-03-16T09:38:51;10.00;99.90
6174;DHT22;3120;48.796;9.796;2023-03-16T09:46:47;10.30;99.90
6174;DHT22;3120;48.796;9.796;2023-03-16T09:49:17;10.00;99.90
6174;DHT22;3120;48.796;9.796;2023-03-16T09:52:05;10.60;99.90
6174;DHT22;3120;48.796;9.796;2023-03-16T09:57:57;10.50;99.90
6174;DHT22;3120;48.796;9.796;2023-03-16T10:16:38;9.50;1.00
6174;DHT22;3120;48.796;9.796;2023-03-16T10:19:12;9.70;1.00
6174;DHT22;3120;48.796;9.796;2023-03-16T10:21:40;9.60;1.00
6174;DHT22;3120;48.796;9.796;2023-03-16T10:24:18;9.70;1.00
6174;DHT22;3120;48.796;9.796;2023-03-16T10:26:53;9.60;1.00
6174;DHT22;3120;48.796;9.796;2023-03-16T10:29:19;9.60;1.00
6174;DHT22;3120;48.796;9.796;2023-03-16T10:31:45;10.40;1.00
6174;DHT22;3120;48.796;9.796;2023-03-16T10:34:12;10.00;1.00
6174;DHT22;3120;48.796;9.796;2023-03-16T10:36:42;11.30;99.90
6174;DHT22;3120;48.796;9.796;2023-03-16T10:39:11;10.80;99.90
6174;DHT22;3120;48.796;9.796;2023-03-16T10:41:41;10.00;99.90
6174;DHT22;3120;48.796;9.796;2023-03-16T10:44:13;10.00;99.90
6174;DHT22;3120;48.796;9.796;2023-03-16T10:46:44;10.10;99.90
6174;DHT22;3120;48.796;9.796;2023-03-16T10:49:39;10.10;99.90
6174;DHT22;3120;48.796;9.796;2023-03-16T10:52:39;10.00;99.90
6174;DHT22;3120;48.796;9.796;2023-03-16T10:55:13;9.90;99.90
6174;DHT22;3120;48.796;9.796;2023-03-16T10:57:49;9.90;99.90
6174;DHT22;3120;48.796;9.796;2023-03-16T11:00:26;10.90;99.90
6174;DHT22;3120;48.796;9.796;2023-03-16T11:02:57;10.30;99.90
6174;DHT22;3120;48.796;9.796;2023-03-16T11:12:52;10.00;99.90
6174;DHT22;3120;48.796;9.796;2023-03-16T11:15:19;10.00;99.90
6174;DHT22;3120;48.796;9.796;2023-03-16T11:17:48;10.00;99.90
6174;DHT22;3120;48.796;9.796;2023-03-16T11:20:26;10.20;99.90
6174;DHT22;3120;48.796;9.796;2023-03-16T11:22:53;10.30;99.90
6174;DHT22;3120;48.796;9.796;2023-03-16T11:25:32;10.30;99.90
6174;DHT22;3120;48.796;9.796;2023-03-16T11:28:36;11.00;99.90
6174;DHT22;3120;48.796;9.796;2023-03-16T11:33:52;10.50;99.90
6174;DHT22;3120;48.796;9.796;2023-03-16T11:39:38;10.30;99.90
6174;DHT22;3120;48.796;9.796;2023-03-16T11:42:21;10.50;99.90
6174;DHT22;3120;48.796;9.796;2023-03-16T11:45:00;10.60;99.90
6174;DHT22;3120;48.796;9.796;2023-03-16T11:47:50;10.70;99.90
6174;DHT22;3120;48.796;9.796;2023-03-16T11:51:12;10.90;99.90
6174;DHT22;3120;48.796;9.796;2023-03-16T11:53:38;10.80;99.90
6174;DHT22;3120;48.796;9.796;2023-03-16T11:58:48;10.50;99.90
6174;DHT22;3120;48.796;9.796;2023-03-16T12:01:23;10.60;99.90
6174;DHT22;3120;48.796;9.796;2023-03-16T12:04:05;10.40;99.90
6174;DHT22;3120;48.796;9.796;2023-03-16T12:06:48;10.40;99.90
6174;DHT22;3120;48.796;9.796;2023-03-16T12:12:21;10.70;99.90
6174;DHT22;3120;48.796;9.796;2023-03-16T12:17:47;10.80;99.90
6174;DHT22;3120;48.796;9.796;2023-03-16T12:20:21;10.60;99.90
6174;DHT22;3120;48.796;9.796;2023-03-16T12:23:13;11.70;99.90
6174;DHT22;3120;48.796;9.796;2023-03-16T12:25:43;10.70;99.90
6174;DHT22;3120;48.796;9.796;2023-03-16T12:28:21;10.70;99.90
6174;DHT22;3120;48.796;9.796;2023-03-16T12:30:54;10.80;99.90
6174;DHT22;3120;48.796;9.796;2023-03-16T12:33:41;10.80;99.90
6174;DHT22;3120;48.796;9.796;2023-03-16T12:36:44;11.90;99.90
6174;DHT22;3120;48.796;9.796;2023-03-16T12:40:07;10.80;99.90
6174;DHT22;3120;48.796;9.796;2023-03-16T12:45:22;11.70;99.90
6174;DHT22;3120;48.796;9.796;2023-03-16T12:50:28;10.90;99.90
6174;DHT22;3120;48.796;9.796;2023-03-16T12:52:55;12.30;99.90
6174;DHT22;3120;48.796;9.796;2023-03-16T12:58:04;11.10;99.90
6174;DHT22;3120;48.796;9.796;2023-03-16T13:00:37;10.80;99.90
6174;DHT22;3120;48.796;9.796;2023-03-16T13:03:04;11.20;99.90
6174;DHT22;3120;48.796;9.796;2023-03-16T13:05:34;11.20;99.90
6174;DHT22;3120;48.796;9.796;2023-03-16T13:08:12;12.20;98.40
6174;DHT22;3120;48.796;9.796;2023-03-16T13:10:39;11.10;99.90
6174;DHT22;3120;48.796;9.796;2023-03-16T13:13:13;11.30;99.90
6174;DHT22;3120;48.796;9.796;2023-03-16T13:15:41;11.30;99.90
6174;DHT22;3120;48.796;9.796;2023-03-16T13:20:57;12.00;99.90
6174;DHT22;3120;48.796;9.796;2023-03-16T13:23:28;11.30;99.90
6174;DHT22;3120;48.796;9.796;2023-03-16T13:26:14;11.30;99.90
6174;DHT22;3120;48.796;9.796;2023-03-16T13:28:41;11.40;99.90
6174;DHT22;3120;48.796;9.796;2023-03-16T13:31:39;12.70;99.90
6174;DHT22;3120;48.796;9.796;2023-03-16T13:34:07;11.50;99.90
6174;DHT22;3120;48.796;9.796;2023-03-16T13:36:36;12.90;93.60
6174;DHT22;3120;48.796;9.796;2023-03-16T13:39:24;11.40;98.10
6174;DHT22;3120;48.796;9.796;2023-03-16T13:41:59;11.30;99.90
6174;DHT22;3120;48.796;9.796;2023-03-16T13:44:27;11.20;99.90
6174;DHT22;3120;48.796;9.796;2023-03-16T13:46:53;11.00;98.60
6174;DHT22;3120;48.796;9.796;2023-03-16T13:49:19;11.50;99.90
6174;DHT22;3120;48.796;9.796;2023-03-16T13:51:46;11.00;99.90
6174;DHT22;3120;48.796;9.796;2023-03-16T13:54:31;11.10;99.90
6174;DHT22;3120;48.796;9.796;2023-03-16T13:56:59;11.10;99.90
6174;DHT22;3120;48.796;9.796;2023-03-16T13:59:26;11.40;99.90
6174;DHT22;3120;48.796;9.796;2023-03-16T14:01:56;11.30;99.90
6174;DHT22;3120;48.796;9.796;2023-03-16T14:04:24;11.50;99.90
6174;DHT22;3120;48.796;9.796;2023-03-16T14:06:59;11.40;99.90
6174;DHT22;3120;48.796;9.796;2023-03-16T14:09:27;11.50;99.90
6174;DHT22;3120;48.796;9.796;2023-03-16T14:11:54;11.60;92.00
6174;DHT22;3120;48.796;9.796;2023-03-16T14:14:28;13.50;89.40
6174;DHT22;3120;48.796;9.796;2023-03-16T14:17:00;11.60;97.10
6174;DHT22;3120;48.796;9.796;2023-03-16T14:19:27;11.50;82.30
6174;DHT22;3120;48.796;9.796;2023-03-16T14:22:01;12.40;94.40
6174;DHT22;3120;48.796;9.796;2023-03-16T14:24:38;11.60;77.20
6174;DHT22;3120;48.796;9.796;2023-03-16T14:27:25;11.60;60.60
6174;DHT22;3120;48.796;9.796;2023-03-16T14:29:59;11.40;50.00
6174;DHT22;3120;48.796;9.796;2023-03-16T14:32:30;11.30;66.60
6174;DHT22;3120;48.796;9.796;2023-03-16T14:35:16;11.20;92.30
6174;DHT22;3120;48.796;9.796;2023-03-16T14:37:44;11.20;99.90
6174;DHT22;3120;48.796;9.796;2023-03-16T14:40:30;11.20;99.90
6174;DHT22;3120;48.796;9.796;2023-03-16T14:42:59;11.20;99.90
6174;DHT22;3120;48.796;9.796;2023-03-16T14:45:31;11.80;99.90
6174;DHT22;3120;48.796;9.796;2023-03-16T14:48:12;11.00;99.90
6174;DHT22;3120;48.796;9.796;2023-03-16T14:50:43;12.20;99.90
6174;DHT22;3120;48.796;9.796;2023-03-16T14:53:09;12.50;99.90
6174;DHT22;3120;48.796;9.796;2023-03-16T14:55:35;11.00;99.90
6174;DHT22;3120;48.796;9.796;2023-03-16T14:58:02;12.10;99.90
6174;DHT22;3120;48.796;9.796;2023-03-16T15:00:28;11.00;99.90
6174;DHT22;3120;48.796;9.796;2023-03-16T15:02:57;11.10;99.90
6174;DHT22;3120;48.796;9.796;2023-03-16T15:05:29;11.20;99.90
6174;DHT22;3120;48.796;9.796;2023-03-16T15:07:56;11.30;99.90
6174;DHT22;3120;48.796;9.796;2023-03-16T15:10:27;12.60;99.90
6174;DHT22;3120;48.796;9.796;2023-03-16T15:12:54;11.40;99.90
6174;DHT22;3120;48.796;9.796;2023-03-16T15:15:28;12.20;99.90
6174;DHT22;3120;48.796;9.796;2023-03-16T15:17:54;11.50;99.90
6174;DHT22;3120;48.796;9.796;2023-03-16T15:20:32;11.40;99.90
6174;DHT22;3120;48.796;9.796;2023-03-16T15:22:59;12.50;99.90
6174;DHT22;3120;48.796;9.796;2023-03-16T15:28:14;11.40;99.90
6174;DHT22;3120;48.796;9.796;2023-03-16T15:30:45;11.40;99.90
6174;DHT22;3120;48.796;9.796;2023-03-16T15:33:11;11.40;99.90
6174;DHT22;3120;48.796;9.796;2023-03-16T15:35:38;11.20;99.90
6174;DHT22;3120;48.796;9.796;2023-03-16T15:38:10;12.30;99.90
6174;DHT22;3120;48.796;9.796;2023-03-16T15:40:38;11.90;99.90
6174;DHT22;3120;48.796;9.796;2023-03-16T15:43:08;11.30;99.90
6174;DHT22;3120;48.796;9.796;2023-03-16T15:45:34;11.80;99.90
6174;DHT22;3120;48.796;9.796;2023-03-16T15:51:19;11.20;99.90
6174;DHT22;3120;48.796;9.796;2023-03-16T15:54:03;11.00;99.90
6174;DHT22;3120;48.796;9.796;2023-03-16T15:56:33;11.00;99.90
6174;DHT22;3120;48.796;9.796;2023-03-16T15:59:03;11.10;99.90
6174;DHT22;3120;48.796;9.796;2023-03-16T16:01:32;11.00;99.90
6174;DHT22;3120;48.796;9.796;2023-03-16T16:04:02;11.10;99.90
6174;DHT22;3120;48.796;9.796;2023-03-16T16:06:28;11.00;99.90
6174;DHT22;3120;48.796;9.796;2023-03-16T16:08:54;11.00;99.90
6174;DHT22;3120;48.796;9.796;2023-03-16T16:11:23;11.70;99.90
6174;DHT22;3120;48.796;9.796;2023-03-16T16:13:50;10.90;99.90
6174;DHT22;3120;48.796;9.796;2023-03-16T16:16:17;11.40;99.90
6174;DHT22;3120;48.796;9.796;2023-03-16T16:18:44;12.00;99.90
6174;DHT22;3120;48.796;9.796;2023-03-16T16:21:28;10.90;99.90
6174;DHT22;3120;48.796;9.796;2023-03-16T16:23:56;11.90;99.90
6174;DHT22;3120;48.796;9.796;2023-03-16T16:26:29;10.90;99.90
6174;DHT22;3120;48.796;9.796;2023-03-16T16:28:56;10.80;99.90
6174;DHT22;3120;48.796;9.796;2023-03-16T16:31:29;10.80;99.90
6174;DHT22;3120;48.796;9.796;2023-03-16T16:33:55;10.70;99.90
6174;DHT22;3120;48.796;9.796;2023-03-16T16:36:20;12.00;99.90
6174;DHT22;3120;48.796;9.796;2023-03-16T16:38:47;11.60;99.90
6174;DHT22;3120;48.796;9.796;2023-03-16T16:41:28;10.60;99.90
6174;DHT22;3120;48.796;9.796;2023-03-16T16:43:55;10.40;99.90
6174;DHT22;3120;48.796;9.796;2023-03-16T16:46:23;10.50;99.90
6174;DHT22;3120;48.796;9.796;2023-03-16T16:49:25;12.00;99.90
6174;DHT22;3120;48.796;9.796;2023-03-16T16:51:56;10.30;99.90
6174;DHT22;3120;48.796;9.796;2023-03-16T16:54:24;11.40;99.90
6174;DHT22;3120;48.796;9.796;2023-03-16T16:56:52;11.20;99.90
6174;DHT22;3120;48.796;9.796;2023-03-16T16:59:33;10.70;99.90
6174;DHT22;3120;48.796;9.796;2023-03-16T17:02:00;10.00;99.90
6174;DHT22;3120;48.796;9.796;2023-03-16T17:04:28;9.90;99.90
6174;DHT22;3120;48.796;9.796;2023-03-16T17:06:56;9.80;99.90
6174;DHT22;3120;48.796;9.796;2023-03-16T17:09:24;9.70;99.90
6174;DHT22;3120;48.796;9.796;2023-03-16T17:11:51;9.70;99.90
6174;DHT22;3120;48.796;9.796;2023-03-16T17:14:19;10.30;99.90
6174;DHT22;3120;48.796;9.796;2023-03-16T17:16:46;11.70;99.90
6174;DHT22;3120;48.796;9.796;2023-03-16T17:19:25;9.60;99.90
6174;DHT22;3120;48.796;9.796;2023-03-16T17:21:53;11.20;1.00
6174;DHT22;3120;48.796;9.796;2023-03-16T17:24:20;9.30;1.00
6174;DHT22;3120;48.796;9.796;2023-03-16T17:26:55;10.90;1.00
6174;DHT22;3120;48.796;9.796;2023-03-16T17:29:33;10.60;1.00
6174;DHT22;3120;48.796;9.796;2023-03-16T17:32:09;9.10;1.00
6174;DHT22;3120;48.796;9.796;2023-03-16T17:34:39;8.90;1.00
6174;DHT22;3120;48.796;9.796;2023-03-16T17:37:10;7.60;1.00
6174;DHT22;3120;48.796;9.796;2023-03-16T17:39:37;10.10;1.00
6174;DHT22;3120;48.796;9.796;2023-03-16T17:42:06;8.60;1.00
6174;DHT22;3120;48.796;9.796;2023-03-16T17:44:40;8.50;99.90
6174;DHT22;3120;48.796;9.796;2023-03-16T17:47:15;8.30;99.90
6174;DHT22;3120;48.796;9.796;2023-03-16T17:49:42;8.30;99.90